sensor_id;sensor_type;location;lat;lon;timestamp;P1;durP1;ratioP1;P2;durP2;ratioP2
3307;SDS011;1666;48.898;9.182;2023-02-12T00:00:21;39.55;;;25.92;;
3307;SDS011;1666;48.898;9.182;2023-02-12T00:02:54;44.80;;;27.45;;
3307;SDS011;1666;48.898;9.182;2023-02-12T00:05:24;40.33;;;25.90;;
3307;SDS011;1666;48.898;9.182;2023-02-12T00:07:54;44.08;;;26.50;;
3307;SDS011;1666;48.898;9.182;2023-02-12T00:10:24;45.38;;;26.75;;
3307;SDS011;1666;48.898;9.182;2023-02-12T00:12:54;45.33;;;27.50;;
3307;SDS011;1666;48.898;9.182;2023-02-12T00:15:24;48.67;;;26.77;;
3307;SDS011;1666;48.898;9.182;2023-02-12T00:17:56;51.33;;;28.40;;
3307;SDS011;1666;48.898;9.182;2023-02-12T00:20:26;40.13;;;25.27;;
3307;SDS011;1666;48.898;9.182;2023-02-12T00:22:56;42.03;;;25.88;;
3307;SDS011;1666;48.898;9.182;2023-02-12T00:25:25;42.60;;;25.50;;
3307;SDS011;1666;48.898;9.182;2023-02-12T00:27:55;42.53;;;27.73;;
3307;SDS011;1666;48.898;9.182;2023-02-12T00:30:25;44.17;;;26.58;;
3307;SDS011;1666;48.898;9.182;2023-02-12T00:32:58;43.15;;;27.45;;
3307;SDS011;1666;48.898;9.182;2023-02-12T00:35:27;44.45;;;27.58;;
3307;SDS011;1666;48.898;9.182;2023-02-12T00:37:57;42.90;;;27.17;;
3307;SDS011;1666;48.898;9.182;2023-02-12T00:40:27;47.05;;;27.85;;
3307;SDS011;1666;48.898;9.182;2023-02-12T00:42:57;49.50;;;30.67;;
3307;SDS011;1666;48.898;9.182;2023-02-12T00:45:27;44.85;;;29.35;;
3307;SDS011;1666;48.898;9.182;2023-02-12T00:47:59;48.13;;;31.55;;
3307;SDS011;1666;48.898;9.182;2023-02-12T00:50:29;49.20;;;29.85;;
3307;SDS011;1666;48.898;9.182;2023-02-12T00:52:59;51.45;;;31.58;;
3307;SDS011;1666;48.898;9.182;2023-02-12T00:55:28;50.28;;;30.95;;
3307;SDS011;1666;48.898;9.182;2023-02-12T00:57:59;47.42;;;28.73;;
3307;SDS011;1666;48.898;9.182;2023-02-12T01:00:29;46.35;;;30.38;;
3307;SDS011;1666;48.898;9.182;2023-02-12T01:03:01;47.33;;;30.33;;
3307;SDS011;1666;48.898;9.182;2023-02-12T01:05:32;46.95;;;29.98;;
3307;SDS011;1666;48.898;9.182;2023-02-12T01:08:02;50.72;;;30.75;;
3307;SDS011;1666;48.898;9.182;2023-02-12T01:10:33;48.10;;;30.63;;
3307;SDS011;1666;48.898;9.182;2023-02-12T01:13:02;50.88;;;31.77;;
3307;SDS011;1666;48.898;9.182;2023-02-12T01:15:32;46.30;;;29.23;;
3307;SDS011;1666;48.898;9.182;2023-02-12T01:18:05;47.33;;;31.08;;
3307;SDS011;1666;48.898;9.182;2023-02-12T01:20:34;46.33;;;30.52;;
3307;SDS011;1666;48.898;9.182;2023-02-12T01:23:04;49.60;;;30.88;;
3307;SDS011;1666;48.898;9.182;2023-02-12T01:25:34;52.15;;;30.38;;
3307;SDS011;1666;48.898;9.182;2023-02-12T01:28:05;50.33;;;31.23;;
3307;SDS011;1666;48.898;9.182;2023-02-12T01:30:35;50.78;;;30.08;;
3307;SDS011;1666;48.898;9.182;2023-02-12T01:33:07;48.30;;;30.75;;
3307;SDS011;1666;48.898;9.182;2023-02-12T01:35:37;48.92;;;30.15;;
3307;SDS011;1666;48.898;9.182;2023-02-12T01:38:07;41.70;;;27.83;;
3307;SDS011;1666;48.898;9.182;2023-02-12T01:40:37;42.38;;;27.40;;
3307;SDS011;1666;48.898;9.182;2023-02-12T01:43:08;44.15;;;28.15;;
3307;SDS011;1666;48.898;9.182;2023-02-12T01:45:44;45.70;;;27.08;;
3307;SDS011;1666;48.898;9.182;2023-02-12T01:48:18;50.67;;;29.00;;
3307;SDS011;1666;48.898;9.182;2023-02-12T01:50:51;41.95;;;26.52;;
3307;SDS011;1666;48.898;9.182;2023-02-12T01:53:22;43.10;;;27.40;;
3307;SDS011;1666;48.898;9.182;2023-02-12T01:55:56;45.17;;;27.00;;
3307;SDS011;1666;48.898;9.182;2023-02-12T01:58:30;42.60;;;26.30;;
3307;SDS011;1666;48.898;9.182;2023-02-12T02:01:05;42.58;;;26.02;;
3307;SDS011;1666;48.898;9.182;2023-02-12T02:03:40;42.95;;;25.70;;
3307;SDS011;1666;48.898;9.182;2023-02-12T02:06:14;42.38;;;25.95;;
3307;SDS011;1666;48.898;9.182;2023-02-12T02:08:46;50.20;;;29.35;;
3307;SDS011;1666;48.898;9.182;2023-02-12T02:11:17;41.60;;;25.95;;
3307;SDS011;1666;48.898;9.182;2023-02-12T02:13:59;46.10;;;29.42;;
3307;SDS011;1666;48.898;9.182;2023-02-12T02:16:45;46.05;;;28.40;;
3307;SDS011;1666;48.898;9.182;2023-02-12T02:19:26;47.50;;;27.45;;
3307;SDS011;1666;48.898;9.182;2023-02-12T02:22:23;44.08;;;26.15;;
3307;SDS011;1666;48.898;9.182;2023-02-12T02:25:08;42.80;;;25.73;;
3307;SDS011;1666;48.898;9.182;2023-02-12T02:27:55;41.05;;;26.10;;
3307;SDS011;1666;48.898;9.182;2023-02-12T02:30:40;42.53;;;27.13;;
3307;SDS011;1666;48.898;9.182;2023-02-12T02:33:24;44.03;;;25.67;;
3307;SDS011;1666;48.898;9.182;2023-02-12T02:36:05;44.50;;;26.10;;
3307;SDS011;1666;48.898;9.182;2023-02-12T02:38:43;45.92;;;26.77;;
3307;SDS011;1666;48.898;9.182;2023-02-12T02:41:19;40.58;;;25.08;;
3307;SDS011;1666;48.898;9.182;2023-02-12T02:43:54;43.25;;;26.75;;
3307;SDS011;1666;48.898;9.182;2023-02-12T02:46:28;42.97;;;26.38;;
3307;SDS011;1666;48.898;9.182;2023-02-12T02:49:03;44.30;;;27.50;;
3307;SDS011;1666;48.898;9.182;2023-02-12T02:51:36;44.07;;;26.33;;
3307;SDS011;1666;48.898;9.182;2023-02-12T02:56:42;43.50;;;25.85;;
3307;SDS011;1666;48.898;9.182;2023-02-12T02:59:16;44.10;;;26.30;;
3307;SDS011;1666;48.898;9.182;2023-02-12T03:01:53;38.72;;;24.45;;
3307;SDS011;1666;48.898;9.182;2023-02-12T03:04:29;44.45;;;26.02;;
3307;SDS011;1666;48.898;9.182;2023-02-12T03:07:02;42.70;;;27.33;;
3307;SDS011;1666;48.898;9.182;2023-02-12T03:09:35;44.97;;;26.30;;
3307;SDS011;1666;48.898;9.182;2023-02-12T03:12:09;46.30;;;28.13;;
3307;SDS011;1666;48.898;9.182;2023-02-12T03:14:43;40.92;;;26.30;;
3307;SDS011;1666;48.898;9.182;2023-02-12T03:19:51;42.58;;;26.17;;
3307;SDS011;1666;48.898;9.182;2023-02-12T03:22:26;44.03;;;25.58;;
3307;SDS011;1666;48.898;9.182;2023-02-12T03:25:00;45.00;;;26.30;;
3307;SDS011;1666;48.898;9.182;2023-02-12T03:27:36;42.05;;;27.00;;
3307;SDS011;1666;48.898;9.182;2023-02-12T03:30:08;42.33;;;26.85;;
3307;SDS011;1666;48.898;9.182;2023-02-12T03:32:43;37.75;;;24.52;;
3307;SDS011;1666;48.898;9.182;2023-02-12T03:35:19;48.83;;;28.20;;
3307;SDS011;1666;48.898;9.182;2023-02-12T03:37:54;45.95;;;29.05;;
3307;SDS011;1666;48.898;9.182;2023-02-12T03:40:27;46.22;;;27.75;;
3307;SDS011;1666;48.898;9.182;2023-02-12T03:43:01;49.22;;;29.30;;
3307;SDS011;1666;48.898;9.182;2023-02-12T03:45:38;46.40;;;28.70;;
3307;SDS011;1666;48.898;9.182;2023-02-12T03:48:17;50.72;;;30.23;;
3307;SDS011;1666;48.898;9.182;2023-02-12T03:50:51;46.20;;;29.13;;
3307;SDS011;1666;48.898;9.182;2023-02-12T03:53:25;46.45;;;28.63;;
3307;SDS011;1666;48.898;9.182;2023-02-12T03:55:58;44.38;;;29.23;;
3307;SDS011;1666;48.898;9.182;2023-02-12T03:58:31;47.97;;;30.08;;
3307;SDS011;1666;48.898;9.182;2023-02-12T04:01:03;48.35;;;29.35;;
3307;SDS011;1666;48.898;9.182;2023-02-12T04:03:36;45.65;;;28.83;;
3307;SDS011;1666;48.898;9.182;2023-02-12T04:06:17;44.55;;;28.42;;
3307;SDS011;1666;48.898;9.182;2023-02-12T04:08:48;46.35;;;29.90;;
3307;SDS011;1666;48.898;9.182;2023-02-12T04:11:19;47.20;;;30.45;;
3307;SDS011;1666;48.898;9.182;2023-02-12T04:14:04;47.35;;;30.38;;
3307;SDS011;1666;48.898;9.182;2023-02-12T04:16:43;49.67;;;29.58;;
3307;SDS011;1666;48.898;9.182;2023-02-12T04:21:58;46.03;;;28.13;;
3307;SDS011;1666;48.898;9.182;2023-02-12T04:24:42;41.17;;;27.33;;
3307;SDS011;1666;48.898;9.182;2023-02-12T04:27:19;46.80;;;28.70;;
3307;SDS011;1666;48.898;9.182;2023-02-12T04:29:53;46.33;;;27.48;;
3307;SDS011;1666;48.898;9.182;2023-02-12T04:32:30;49.70;;;29.30;;
3307;SDS011;1666;48.898;9.182;2023-02-12T04:35:09;49.05;;;29.45;;
3307;SDS011;1666;48.898;9.182;2023-02-12T04:37:44;43.78;;;29.42;;
3307;SDS011;1666;48.898;9.182;2023-02-12T04:40:18;44.08;;;27.23;;
3307;SDS011;1666;48.898;9.182;2023-02-12T04:42:50;44.72;;;27.33;;
3307;SDS011;1666;48.898;9.182;2023-02-12T04:45:23;44.50;;;28.73;;
3307;SDS011;1666;48.898;9.182;2023-02-12T04:47:55;41.57;;;28.73;;
3307;SDS011;1666;48.898;9.182;2023-02-12T04:50:30;48.03;;;28.85;;
3307;SDS011;1666;48.898;9.182;2023-02-12T04:53:06;45.72;;;28.90;;
3307;SDS011;1666;48.898;9.182;2023-02-12T04:55:37;46.92;;;27.77;;
3307;SDS011;1666;48.898;9.182;2023-02-12T04:58:07;50.20;;;29.50;;
3307;SDS011;1666;48.898;9.182;2023-02-12T05:00:37;47.42;;;28.05;;
3307;SDS011;1666;48.898;9.182;2023-02-12T05:03:06;47.65;;;27.08;;
3307;SDS011;1666;48.898;9.182;2023-02-12T05:05:39;45.92;;;27.02;;
3307;SDS011;1666;48.898;9.182;2023-02-12T05:08:09;41.78;;;27.52;;
3307;SDS011;1666;48.898;9.182;2023-02-12T05:10:39;47.15;;;28.00;;
3307;SDS011;1666;48.898;9.182;2023-02-12T05:13:09;42.47;;;27.13;;
3307;SDS011;1666;48.898;9.182;2023-02-12T05:15:38;46.75;;;29.02;;
3307;SDS011;1666;48.898;9.182;2023-02-12T05:18:08;45.40;;;28.88;;
3307;SDS011;1666;48.898;9.182;2023-02-12T05:20:41;43.75;;;28.48;;
3307;SDS011;1666;48.898;9.182;2023-02-12T05:23:10;45.40;;;28.70;;
3307;SDS011;1666;48.898;9.182;2023-02-12T05:25:40;45.70;;;27.65;;
3307;SDS011;1666;48.898;9.182;2023-02-12T05:28:10;47.70;;;29.23;;
3307;SDS011;1666;48.898;9.182;2023-02-12T05:30:40;45.92;;;28.17;;
3307;SDS011;1666;48.898;9.182;2023-02-12T05:33:09;41.80;;;26.90;;
3307;SDS011;1666;48.898;9.182;2023-02-12T05:35:42;48.08;;;27.00;;
3307;SDS011;1666;48.898;9.182;2023-02-12T05:38:12;44.53;;;28.23;;
3307;SDS011;1666;48.898;9.182;2023-02-12T05:40:42;48.75;;;29.20;;
3307;SDS011;1666;48.898;9.182;2023-02-12T05:43:11;46.00;;;28.15;;
3307;SDS011;1666;48.898;9.182;2023-02-12T05:45:41;47.00;;;27.70;;
3307;SDS011;1666;48.898;9.182;2023-02-12T05:48:11;47.90;;;28.50;;
3307;SDS011;1666;48.898;9.182;2023-02-12T05:50:44;42.42;;;28.65;;
3307;SDS011;1666;48.898;9.182;2023-02-12T05:53:15;46.30;;;28.40;;
3307;SDS011;1666;48.898;9.182;2023-02-12T05:55:44;46.33;;;28.63;;
3307;SDS011;1666;48.898;9.182;2023-02-12T05:58:14;46.00;;;28.08;;
3307;SDS011;1666;48.898;9.182;2023-02-12T06:00:44;45.95;;;28.63;;
3307;SDS011;1666;48.898;9.182;2023-02-12T06:03:14;48.70;;;28.88;;
3307;SDS011;1666;48.898;9.182;2023-02-12T06:05:51;45.97;;;28.83;;
3307;SDS011;1666;48.898;9.182;2023-02-12T06:08:22;45.72;;;27.35;;
3307;SDS011;1666;48.898;9.182;2023-02-12T06:10:51;44.38;;;27.42;;
3307;SDS011;1666;48.898;9.182;2023-02-12T06:13:21;46.83;;;28.05;;
3307;SDS011;1666;48.898;9.182;2023-02-12T06:15:51;46.95;;;28.00;;
3307;SDS011;1666;48.898;9.182;2023-02-12T06:18:21;46.80;;;29.67;;
3307;SDS011;1666;48.898;9.182;2023-02-12T06:20:54;48.72;;;29.35;;
3307;SDS011;1666;48.898;9.182;2023-02-12T06:23:24;41.08;;;26.45;;
3307;SDS011;1666;48.898;9.182;2023-02-12T06:25:57;46.92;;;27.38;;
3307;SDS011;1666;48.898;9.182;2023-02-12T06:28:27;44.50;;;27.50;;
3307;SDS011;1666;48.898;9.182;2023-02-12T06:30:57;47.05;;;27.33;;
3307;SDS011;1666;48.898;9.182;2023-02-12T06:33:27;41.05;;;28.23;;
3307;SDS011;1666;48.898;9.182;2023-02-12T06:36:00;48.25;;;29.10;;
3307;SDS011;1666;48.898;9.182;2023-02-12T06:38:33;47.13;;;27.02;;
3307;SDS011;1666;48.898;9.182;2023-02-12T06:41:03;45.17;;;26.98;;
3307;SDS011;1666;48.898;9.182;2023-02-12T06:43:33;42.92;;;27.27;;
3307;SDS011;1666;48.898;9.182;2023-02-12T06:46:03;45.15;;;27.80;;
3307;SDS011;1666;48.898;9.182;2023-02-12T06:48:34;41.63;;;26.73;;
3307;SDS011;1666;48.898;9.182;2023-02-12T06:51:08;43.25;;;27.08;;
3307;SDS011;1666;48.898;9.182;2023-02-12T06:53:39;43.13;;;26.17;;
3307;SDS011;1666;48.898;9.182;2023-02-12T06:56:09;46.65;;;29.13;;
3307;SDS011;1666;48.898;9.182;2023-02-12T06:58:41;44.20;;;27.67;;
3307;SDS011;1666;48.898;9.182;2023-02-12T07:01:12;46.83;;;27.95;;
3307;SDS011;1666;48.898;9.182;2023-02-12T07:03:46;43.63;;;27.38;;
3307;SDS011;1666;48.898;9.182;2023-02-12T07:06:20;45.35;;;28.58;;
3307;SDS011;1666;48.898;9.182;2023-02-12T07:08:51;43.85;;;27.88;;
3307;SDS011;1666;48.898;9.182;2023-02-12T07:11:22;45.67;;;28.15;;
3307;SDS011;1666;48.898;9.182;2023-02-12T07:13:52;51.95;;;29.55;;
3307;SDS011;1666;48.898;9.182;2023-02-12T07:16:22;43.03;;;28.00;;
3307;SDS011;1666;48.898;9.182;2023-02-12T07:18:52;44.53;;;28.80;;
3307;SDS011;1666;48.898;9.182;2023-02-12T07:21:25;44.00;;;28.92;;
3307;SDS011;1666;48.898;9.182;2023-02-12T07:23:55;45.17;;;28.73;;
3307;SDS011;1666;48.898;9.182;2023-02-12T07:26:25;47.00;;;28.73;;
3307;SDS011;1666;48.898;9.182;2023-02-12T07:28:55;44.13;;;27.95;;
3307;SDS011;1666;48.898;9.182;2023-02-12T07:31:25;48.88;;;30.85;;
3307;SDS011;1666;48.898;9.182;2023-02-12T07:33:56;48.95;;;29.63;;
3307;SDS011;1666;48.898;9.182;2023-02-12T07:36:30;52.03;;;30.45;;
3307;SDS011;1666;48.898;9.182;2023-02-12T07:39:01;45.53;;;29.08;;
3307;SDS011;1666;48.898;9.182;2023-02-12T07:41:31;53.40;;;29.25;;
3307;SDS011;1666;48.898;9.182;2023-02-12T07:44:03;50.85;;;29.52;;
3307;SDS011;1666;48.898;9.182;2023-02-12T07:46:36;44.88;;;27.70;;
3307;SDS011;1666;48.898;9.182;2023-02-12T07:49:10;46.30;;;28.35;;
3307;SDS011;1666;48.898;9.182;2023-02-12T07:51:44;45.55;;;28.33;;
3307;SDS011;1666;48.898;9.182;2023-02-12T07:54:14;46.58;;;29.35;;
3307;SDS011;1666;48.898;9.182;2023-02-12T07:56:44;46.30;;;28.92;;
3307;SDS011;1666;48.898;9.182;2023-02-12T07:59:16;45.40;;;28.15;;
3307;SDS011;1666;48.898;9.182;2023-02-12T08:01:47;46.55;;;30.08;;
3307;SDS011;1666;48.898;9.182;2023-02-12T08:04:19;49.38;;;29.17;;
3307;SDS011;1666;48.898;9.182;2023-02-12T08:06:53;44.88;;;28.98;;
3307;SDS011;1666;48.898;9.182;2023-02-12T08:09:24;53.50;;;32.88;;
3307;SDS011;1666;48.898;9.182;2023-02-12T08:11:56;53.30;;;30.52;;
3307;SDS011;1666;48.898;9.182;2023-02-12T08:14:26;47.17;;;30.10;;
3307;SDS011;1666;48.898;9.182;2023-02-12T08:16:56;47.75;;;29.15;;
3307;SDS011;1666;48.898;9.182;2023-02-12T08:19:26;52.13;;;30.38;;
3307;SDS011;1666;48.898;9.182;2023-02-12T08:21:58;45.33;;;29.00;;
3307;SDS011;1666;48.898;9.182;2023-02-12T08:24:28;50.35;;;30.95;;
3307;SDS011;1666;48.898;9.182;2023-02-12T08:26:58;50.30;;;31.42;;
3307;SDS011;1666;48.898;9.182;2023-02-12T08:29:28;53.85;;;32.33;;
3307;SDS011;1666;48.898;9.182;2023-02-12T08:31:59;53.80;;;32.50;;
3307;SDS011;1666;48.898;9.182;2023-02-12T08:34:32;55.30;;;33.25;;
3307;SDS011;1666;48.898;9.182;2023-02-12T08:37:05;55.15;;;32.30;;
3307;SDS011;1666;48.898;9.182;2023-02-12T08:39:35;50.60;;;31.40;;
3307;SDS011;1666;48.898;9.182;2023-02-12T08:42:05;60.67;;;34.00;;
3307;SDS011;1666;48.898;9.182;2023-02-12T08:44:35;53.38;;;31.80;;
3307;SDS011;1666;48.898;9.182;2023-02-12T08:47:06;54.35;;;32.45;;
3307;SDS011;1666;48.898;9.182;2023-02-12T08:49:36;51.28;;;32.22;;
3307;SDS011;1666;48.898;9.182;2023-02-12T08:52:08;55.60;;;32.72;;
3307;SDS011;1666;48.898;9.182;2023-02-12T08:54:38;50.72;;;31.13;;
3307;SDS011;1666;48.898;9.182;2023-02-12T08:57:08;50.15;;;31.20;;
3307;SDS011;1666;48.898;9.182;2023-02-12T08:59:37;54.17;;;32.40;;
3307;SDS011;1666;48.898;9.182;2023-02-12T09:02:08;60.63;;;36.13;;
3307;SDS011;1666;48.898;9.182;2023-02-12T09:04:38;53.53;;;33.22;;
3307;SDS011;1666;48.898;9.182;2023-02-12T09:07:11;51.25;;;32.30;;
3307;SDS011;1666;48.898;9.182;2023-02-12T09:09:40;53.55;;;32.67;;
3307;SDS011;1666;48.898;9.182;2023-02-12T09:12:10;50.30;;;31.02;;
3307;SDS011;1666;48.898;9.182;2023-02-12T09:14:40;57.20;;;34.47;;
3307;SDS011;1666;48.898;9.182;2023-02-12T09:17:10;51.33;;;30.40;;
3307;SDS011;1666;48.898;9.182;2023-02-12T09:19:40;54.17;;;32.38;;
3307;SDS011;1666;48.898;9.182;2023-02-12T09:22:13;58.35;;;31.73;;
3307;SDS011;1666;48.898;9.182;2023-02-12T09:24:42;55.67;;;34.10;;
3307;SDS011;1666;48.898;9.182;2023-02-12T09:27:12;56.55;;;32.22;;
3307;SDS011;1666;48.898;9.182;2023-02-12T09:29:42;52.75;;;32.13;;
3307;SDS011;1666;48.898;9.182;2023-02-12T09:32:12;55.92;;;32.42;;
3307;SDS011;1666;48.898;9.182;2023-02-12T09:34:42;52.85;;;32.47;;
3307;SDS011;1666;48.898;9.182;2023-02-12T09:37:14;52.67;;;31.83;;
3307;SDS011;1666;48.898;9.182;2023-02-12T09:39:44;51.50;;;31.95;;
3307;SDS011;1666;48.898;9.182;2023-02-12T09:42:22;49.33;;;30.73;;
3307;SDS011;1666;48.898;9.182;2023-02-12T09:45:06;52.25;;;32.92;;
3307;SDS011;1666;48.898;9.182;2023-02-12T09:47:43;51.03;;;31.52;;
3307;SDS011;1666;48.898;9.182;2023-02-12T09:50:30;57.67;;;34.13;;
3307;SDS011;1666;48.898;9.182;2023-02-12T09:53:09;56.83;;;34.20;;
3307;SDS011;1666;48.898;9.182;2023-02-12T09:55:42;52.47;;;33.20;;
3307;SDS011;1666;48.898;9.182;2023-02-12T09:58:13;65.15;;;38.25;;
3307;SDS011;1666;48.898;9.182;2023-02-12T10:00:46;56.97;;;35.63;;
3307;SDS011;1666;48.898;9.182;2023-02-12T10:03:16;58.80;;;33.53;;
3307;SDS011;1666;48.898;9.182;2023-02-12T10:05:47;52.72;;;31.42;;
3307;SDS011;1666;48.898;9.182;2023-02-12T10:08:29;50.88;;;31.42;;
3307;SDS011;1666;48.898;9.182;2023-02-12T10:11:12;53.15;;;32.45;;
3307;SDS011;1666;48.898;9.182;2023-02-12T10:13:59;49.65;;;27.92;;
3307;SDS011;1666;48.898;9.182;2023-02-12T10:16:44;52.90;;;30.52;;
3307;SDS011;1666;48.898;9.182;2023-02-12T10:19:22;49.17;;;29.63;;
3307;SDS011;1666;48.898;9.182;2023-02-12T10:22:09;48.30;;;28.63;;
3307;SDS011;1666;48.898;9.182;2023-02-12T10:24:51;45.30;;;28.02;;
3307;SDS011;1666;48.898;9.182;2023-02-12T10:27:35;46.50;;;26.90;;
3307;SDS011;1666;48.898;9.182;2023-02-12T10:30:13;51.28;;;29.08;;
3307;SDS011;1666;48.898;9.182;2023-02-12T10:32:49;37.78;;;24.20;;
3307;SDS011;1666;48.898;9.182;2023-02-12T10:35:22;39.75;;;24.48;;
3307;SDS011;1666;48.898;9.182;2023-02-12T10:37:54;38.55;;;24.25;;
3307;SDS011;1666;48.898;9.182;2023-02-12T10:40:33;37.58;;;22.70;;
3307;SDS011;1666;48.898;9.182;2023-02-12T10:43:04;41.85;;;26.13;;
3307;SDS011;1666;48.898;9.182;2023-02-12T10:45:36;32.58;;;17.63;;
3307;SDS011;1666;48.898;9.182;2023-02-12T10:48:08;28.15;;;17.50;;
3307;SDS011;1666;48.898;9.182;2023-02-12T10:50:50;19.80;;;11.55;;
3307;SDS011;1666;48.898;9.182;2023-02-12T10:53:29;19.73;;;12.40;;
3307;SDS011;1666;48.898;9.182;2023-02-12T10:56:09;15.40;;;9.07;;
3307;SDS011;1666;48.898;9.182;2023-02-12T10:58:51;16.17;;;8.95;;
3307;SDS011;1666;48.898;9.182;2023-02-12T11:01:25;12.95;;;8.52;;
3307;SDS011;1666;48.898;9.182;2023-02-12T11:03:58;15.07;;;9.27;;
3307;SDS011;1666;48.898;9.182;2023-02-12T11:06:55;21.50;;;10.90;;
3307;SDS011;1666;48.898;9.182;2023-02-12T11:09:27;20.02;;;12.02;;
3307;SDS011;1666;48.898;9.182;2023-02-12T11:12:03;21.95;;;12.52;;
3307;SDS011;1666;48.898;9.182;2023-02-12T11:14:46;19.33;;;10.93;;
3307;SDS011;1666;48.898;9.182;2023-02-12T11:17:19;22.83;;;13.57;;
3307;SDS011;1666;48.898;9.182;2023-02-12T11:20:02;22.10;;;12.45;;
3307;SDS011;1666;48.898;9.182;2023-02-12T11:22:35;16.85;;;10.45;;
3307;SDS011;1666;48.898;9.182;2023-02-12T11:25:09;24.33;;;11.63;;
3307;SDS011;1666;48.898;9.182;2023-02-12T11:27:47;16.05;;;10.00;;
3307;SDS011;1666;48.898;9.182;2023-02-12T11:30:32;14.82;;;9.00;;
3307;SDS011;1666;48.898;9.182;2023-02-12T11:33:13;18.85;;;9.48;;
3307;SDS011;1666;48.898;9.182;2023-02-12T11:35:48;17.02;;;9.55;;
3307;SDS011;1666;48.898;9.182;2023-02-12T11:38:22;19.85;;;11.02;;
3307;SDS011;1666;48.898;9.182;2023-02-12T11:43:38;13.95;;;7.60;;
3307;SDS011;1666;48.898;9.182;2023-02-12T11:46:08;21.20;;;8.18;;
3307;SDS011;1666;48.898;9.182;2023-02-12T11:48:38;16.20;;;9.43;;
3307;SDS011;1666;48.898;9.182;2023-02-12T11:51:09;12.10;;;7.90;;
3307;SDS011;1666;48.898;9.182;2023-02-12T11:53:48;13.88;;;7.70;;
3307;SDS011;1666;48.898;9.182;2023-02-12T11:56:20;9.98;;;6.07;;
3307;SDS011;1666;48.898;9.182;2023-02-12T11:58:53;7.88;;;5.47;;
3307;SDS011;1666;48.898;9.182;2023-02-12T12:01:40;10.75;;;6.32;;
3307;SDS011;1666;48.898;9.182;2023-02-12T12:04:11;11.80;;;6.57;;
3307;SDS011;1666;48.898;9.182;2023-02-12T12:06:45;11.00;;;5.93;;
3307;SDS011;1666;48.898;9.182;2023-02-12T12:09:19;13.40;;;6.28;;
3307;SDS011;1666;48.898;9.182;2023-02-12T12:11:56;6.57;;;4.20;;
3307;SDS011;1666;48.898;9.182;2023-02-12T12:14:36;5.82;;;3.72;;
3307;SDS011;1666;48.898;9.182;2023-02-12T12:17:23;6.50;;;3.33;;
3307;SDS011;1666;48.898;9.182;2023-02-12T12:20:16;7.18;;;4.25;;
3307;SDS011;1666;48.898;9.182;2023-02-12T12:22:52;6.90;;;4.50;;
3307;SDS011;1666;48.898;9.182;2023-02-12T12:25:26;5.85;;;3.22;;
3307;SDS011;1666;48.898;9.182;2023-02-12T12:27:59;4.55;;;3.20;;
3307;SDS011;1666;48.898;9.182;2023-02-12T12:30:53;10.48;;;5.72;;
3307;SDS011;1666;48.898;9.182;2023-02-12T12:33:32;9.07;;;5.53;;
3307;SDS011;1666;48.898;9.182;2023-02-12T12:39:20;5.72;;;4.22;;
3307;SDS011;1666;48.898;9.182;2023-02-12T12:44:51;7.95;;;5.25;;
3307;SDS011;1666;48.898;9.182;2023-02-12T12:47:39;8.70;;;6.35;;
3307;SDS011;1666;48.898;9.182;2023-02-12T12:50:29;5.07;;;3.60;;
3307;SDS011;1666;48.898;9.182;2023-02-12T12:53:13;8.45;;;6.07;;
3307;SDS011;1666;48.898;9.182;2023-02-12T12:55:52;6.43;;;3.90;;
3307;SDS011;1666;48.898;9.182;2023-02-12T12:58:37;8.77;;;4.18;;
3307;SDS011;1666;48.898;9.182;2023-02-12T13:01:22;6.07;;;4.15;;
3307;SDS011;1666;48.898;9.182;2023-02-12T13:04:21;6.43;;;4.57;;
3307;SDS011;1666;48.898;9.182;2023-02-12T13:07:11;6.10;;;4.13;;
3307;SDS011;1666;48.898;9.182;2023-02-12T13:09:53;6.82;;;4.45;;
3307;SDS011;1666;48.898;9.182;2023-02-12T13:15:30;7.03;;;5.00;;
3307;SDS011;1666;48.898;9.182;2023-02-12T13:18:09;6.63;;;4.57;;
3307;SDS011;1666;48.898;9.182;2023-02-12T13:20:53;7.70;;;5.28;;
3307;SDS011;1666;48.898;9.182;2023-02-12T13:23:29;9.88;;;4.82;;
3307;SDS011;1666;48.898;9.182;2023-02-12T13:26:12;6.45;;;4.32;;
3307;SDS011;1666;48.898;9.182;2023-02-12T13:28:45;5.95;;;4.53;;
3307;SDS011;1666;48.898;9.182;2023-02-12T13:31:19;7.30;;;5.25;;
3307;SDS011;1666;48.898;9.182;2023-02-12T13:34:00;8.63;;;5.13;;
3307;SDS011;1666;48.898;9.182;2023-02-12T13:36:36;10.07;;;5.40;;
3307;SDS011;1666;48.898;9.182;2023-02-12T13:39:08;8.07;;;5.57;;
3307;SDS011;1666;48.898;9.182;2023-02-12T13:41:51;7.10;;;4.65;;
3307;SDS011;1666;48.898;9.182;2023-02-12T13:44:30;8.07;;;5.07;;
3307;SDS011;1666;48.898;9.182;2023-02-12T13:47:07;10.27;;;5.82;;
3307;SDS011;1666;48.898;9.182;2023-02-12T13:49:47;9.32;;;5.80;;
3307;SDS011;1666;48.898;9.182;2023-02-12T13:52:26;7.75;;;5.03;;
3307;SDS011;1666;48.898;9.182;2023-02-12T13:55:02;10.07;;;5.40;;
3307;SDS011;1666;48.898;9.182;2023-02-12T13:57:44;6.95;;;5.03;;
3307;SDS011;1666;48.898;9.182;2023-02-12T14:03:23;10.40;;;5.47;;
3307;SDS011;1666;48.898;9.182;2023-02-12T14:06:06;8.77;;;5.85;;
3307;SDS011;1666;48.898;9.182;2023-02-12T14:08:45;8.90;;;5.43;;
3307;SDS011;1666;48.898;9.182;2023-02-12T14:11:20;7.55;;;5.22;;
3307;SDS011;1666;48.898;9.182;2023-02-12T14:13:54;9.70;;;6.43;;
3307;SDS011;1666;48.898;9.182;2023-02-12T14:16:38;9.23;;;5.90;;
3307;SDS011;1666;48.898;9.182;2023-02-12T14:22:10;9.13;;;5.50;;
3307;SDS011;1666;48.898;9.182;2023-02-12T14:24:48;6.57;;;4.45;;
3307;SDS011;1666;48.898;9.182;2023-02-12T14:27:25;5.68;;;3.92;;
3307;SDS011;1666;48.898;9.182;2023-02-12T14:30:22;5.00;;;3.63;;
3307;SDS011;1666;48.898;9.182;2023-02-12T14:32:57;6.03;;;3.50;;
3307;SDS011;1666;48.898;9.182;2023-02-12T14:35:48;5.75;;;3.38;;
3307;SDS011;1666;48.898;9.182;2023-02-12T14:41:32;4.97;;;3.60;;
3307;SDS011;1666;48.898;9.182;2023-02-12T14:47:14;5.20;;;3.80;;
3307;SDS011;1666;48.898;9.182;2023-02-12T14:50:07;7.22;;;4.82;;
3307;SDS011;1666;48.898;9.182;2023-02-12T14:52:45;5.45;;;3.15;;
3307;SDS011;1666;48.898;9.182;2023-02-12T14:55:26;4.95;;;3.50;;
3307;SDS011;1666;48.898;9.182;2023-02-12T14:58:03;6.18;;;3.53;;
3307;SDS011;1666;48.898;9.182;2023-02-12T15:00:35;6.25;;;3.30;;
3307;SDS011;1666;48.898;9.182;2023-02-12T15:03:17;4.38;;;3.10;;
3307;SDS011;1666;48.898;9.182;2023-02-12T15:05:56;5.07;;;3.03;;
3307;SDS011;1666;48.898;9.182;2023-02-12T15:08:32;4.57;;;3.00;;
3307;SDS011;1666;48.898;9.182;2023-02-12T15:11:19;4.47;;;3.10;;
3307;SDS011;1666;48.898;9.182;2023-02-12T15:13:59;8.50;;;3.50;;
3307;SDS011;1666;48.898;9.182;2023-02-12T15:16:37;4.40;;;3.03;;
3307;SDS011;1666;48.898;9.182;2023-02-12T15:19:17;4.78;;;2.88;;
3307;SDS011;1666;48.898;9.182;2023-02-12T15:21:52;5.38;;;3.10;;
3307;SDS011;1666;48.898;9.182;2023-02-12T15:24:23;5.90;;;3.35;;
3307;SDS011;1666;48.898;9.182;2023-02-12T15:26:54;5.38;;;3.00;;
3307;SDS011;1666;48.898;9.182;2023-02-12T15:29:29;3.97;;;3.08;;
3307;SDS011;1666;48.898;9.182;2023-02-12T15:32:04;7.05;;;3.80;;
3307;SDS011;1666;48.898;9.182;2023-02-12T15:34:36;4.32;;;3.28;;
3307;SDS011;1666;48.898;9.182;2023-02-12T15:37:08;4.45;;;3.33;;
3307;SDS011;1666;48.898;9.182;2023-02-12T15:39:46;4.65;;;3.13;;
3307;SDS011;1666;48.898;9.182;2023-02-12T15:42:22;5.32;;;3.42;;
3307;SDS011;1666;48.898;9.182;2023-02-12T15:47:59;3.75;;;2.63;;
3307;SDS011;1666;48.898;9.182;2023-02-12T15:50:33;4.63;;;3.22;;
3307;SDS011;1666;48.898;9.182;2023-02-12T15:53:05;3.72;;;3.08;;
3307;SDS011;1666;48.898;9.182;2023-02-12T15:55:35;5.40;;;3.50;;
3307;SDS011;1666;48.898;9.182;2023-02-12T15:58:17;5.07;;;3.65;;
3307;SDS011;1666;48.898;9.182;2023-02-12T16:00:53;5.10;;;3.35;;
3307;SDS011;1666;48.898;9.182;2023-02-12T16:03:28;8.73;;;3.70;;
3307;SDS011;1666;48.898;9.182;2023-02-12T16:06:00;5.13;;;3.53;;
3307;SDS011;1666;48.898;9.182;2023-02-12T16:08:36;7.82;;;3.75;;
3307;SDS011;1666;48.898;9.182;2023-02-12T16:11:07;6.88;;;4.05;;
3307;SDS011;1666;48.898;9.182;2023-02-12T16:16:18;5.40;;;3.00;;